createdAt,value
2022-08-18T00:02:21.980Z,7.82
2022-08-18T00:04:53.087Z,8.50
2022-08-18T00:07:31.748Z,9.10
2022-08-18T00:10:00.201Z,10.32
2022-08-18T00:12:33.440Z,8.48
2022-08-18T00:15:05.531Z,10.75
2022-08-18T00:17:59.497Z,8.82
2022-08-18T00:20:26.407Z,9.90
2022-08-18T00:22:53.674Z,11.60
2022-08-18T00:25:20.941Z,7.63
2022-08-18T00:27:51.339Z,8.70
2022-08-18T00:30:20.293Z,8.05
2022-08-18T00:32:54.146Z,11.70
2022-08-18T00:35:29.422Z,6.97
2022-08-18T00:37:58.709Z,7.55
2022-08-18T00:40:37.872Z,7.00
2022-08-18T00:43:07.229Z,5.88
2022-08-18T00:45:38.069Z,6.68
2022-08-18T00:48:06.290Z,6.53
2022-08-18T00:50:40.423Z,8.13
2022-08-18T00:53:31.489Z,5.82
2022-08-18T00:56:04.954Z,6.55
2022-08-18T00:58:37.431Z,7.00
2022-08-18T01:01:06.687Z,5.85
2022-08-18T01:03:36.347Z,4.43
2022-08-18T01:06:15.146Z,5.78
2022-08-18T01:08:42.796Z,5.75
2022-08-18T01:11:10.588Z,5.15
2022-08-18T01:13:41.604Z,6.40
2022-08-18T01:16:27.265Z,6.25
2022-08-18T01:19:13.376Z,6.05
2022-08-18T01:21:52.545Z,5.55
2022-08-18T01:24:49.229Z,7.55
2022-08-18T01:27:18.971Z,7.03
2022-08-18T01:29:48.684Z,6.88
2022-08-18T01:32:19.798Z,8.98
2022-08-18T01:34:49.292Z,6.28
2022-08-18T01:37:18.797Z,8.00
2022-08-18T01:41:01.001Z,7.07
2022-08-18T01:42:34.309Z,8.23
2022-08-18T01:45:03.924Z,10.55
2022-08-18T01:47:47.880Z,7.22
2022-08-18T01:50:17.350Z,6.75
2022-08-18T01:52:44.580Z,8.15
2022-08-18T01:55:11.481Z,8.68
2022-08-18T01:57:44.960Z,6.30
2022-08-18T02:00:14.898Z,7.47
2022-08-18T02:02:42.845Z,9.55
2022-08-18T02:05:16.279Z,8.45
2022-08-18T02:07:43.365Z,8.35
2022-08-18T02:10:12.470Z,7.88
2022-08-18T02:12:43.891Z,7.77
2022-08-18T02:15:11.923Z,9.15
2022-08-18T02:17:40.719Z,10.40
2022-08-18T02:20:10.066Z,8.65
2022-08-18T02:22:37.833Z,9.60
2022-08-18T02:25:06.793Z,11.00
2022-08-18T02:27:35.270Z,8.45
2022-08-18T02:30:05.564Z,9.98
2022-08-18T02:32:33.072Z,10.02
2022-08-18T02:35:00.519Z,9.65
2022-08-18T02:37:27.517Z,9.43
2022-08-18T02:39:54.397Z,10.02
2022-08-18T02:42:21.641Z,10.65
2022-08-18T02:44:48.791Z,13.45
2022-08-18T02:47:15.707Z,12.73
2022-08-18T02:49:42.721Z,9.82
2022-08-18T02:52:09.638Z,11.48
2022-08-18T02:54:36.605Z,11.25
2022-08-18T02:57:08.540Z,11.05
2022-08-18T02:59:36.768Z,13.30
2022-08-18T03:02:08.738Z,12.95
2022-08-18T03:04:36.174Z,12.18
2022-08-18T03:07:05.906Z,13.85
2022-08-18T03:09:34.469Z,11.98
2022-08-18T03:12:01.792Z,12.65
2022-08-18T03:14:29.583Z,17.33
2022-08-18T03:16:57.040Z,13.95
2022-08-18T03:19:25.692Z,12.98
2022-08-18T03:21:53.000Z,13.07
2022-08-18T03:24:22.934Z,12.57
2022-08-18T03:26:52.833Z,11.85
2022-08-18T03:29:20.718Z,13.85
2022-08-18T03:31:48.739Z,12.02
2022-08-18T03:34:19.942Z,13.13
2022-08-18T03:36:49.213Z,13.75
2022-08-18T03:39:17.431Z,13.35
2022-08-18T03:41:58.838Z,14.85
2022-08-18T03:47:03.146Z,14.77
2022-08-18T03:49:33.497Z,14.77
2022-08-18T03:52:01.421Z,15.32
2022-08-18T03:54:29.639Z,15.13
2022-08-18T03:56:56.733Z,14.20
2022-08-18T03:59:25.512Z,18.48
2022-08-18T04:01:54.175Z,15.55
2022-08-18T04:04:25.360Z,14.52
2022-08-18T04:06:59.252Z,14.98
2022-08-18T04:09:29.452Z,14.80
2022-08-18T04:11:57.929Z,14.93
2022-08-18T04:14:32.714Z,15.10
2022-08-18T04:17:00.221Z,18.00
2022-08-18T04:19:28.133Z,15.02
2022-08-18T04:21:58.359Z,16.17
2022-08-18T04:24:31.886Z,15.63
2022-08-18T04:27:01.211Z,16.85
2022-08-18T04:29:28.707Z,15.60
2022-08-18T04:31:56.141Z,15.75
2022-08-18T04:34:23.318Z,15.60
2022-08-18T04:36:54.233Z,15.35
2022-08-18T04:39:22.663Z,15.10
2022-08-18T04:41:50.134Z,17.58
2022-08-18T04:44:18.255Z,17.20
2022-08-18T04:46:49.393Z,18.38
2022-08-18T04:49:18.801Z,17.65
2022-08-18T04:52:38.972Z,16.15
2022-08-18T04:54:56.215Z,16.42
2022-08-18T04:57:24.182Z,16.10
2022-08-18T04:59:52.597Z,15.13
2022-08-18T05:02:21.630Z,16.23
2022-08-18T05:04:48.683Z,16.15
2022-08-18T05:07:20.203Z,16.08
2022-08-18T05:09:48.439Z,17.35
2022-08-18T05:12:16.424Z,16.92
2022-08-18T05:14:45.783Z,16.13
2022-08-18T05:17:14.550Z,17.10
2022-08-18T05:19:44.499Z,16.48
2022-08-18T05:22:18.390Z,14.60
2022-08-18T05:24:47.156Z,18.80
2022-08-18T05:27:14.653Z,16.10
2022-08-18T05:29:46.130Z,17.98
2022-08-18T05:32:37.264Z,16.60
2022-08-18T05:35:13.767Z,18.17
2022-08-18T05:38:21.863Z,17.25
2022-08-18T05:41:07.746Z,14.05
2022-08-18T05:43:52.044Z,16.88
2022-08-18T05:46:47.665Z,16.35
2022-08-18T05:49:15.798Z,14.43
2022-08-18T05:51:49.538Z,14.40
2022-08-18T05:54:38.063Z,14.07
2022-08-18T05:57:11.843Z,11.50
2022-08-18T05:59:41.053Z,13.80
2022-08-18T06:02:08.077Z,12.00
2022-08-18T06:04:51.163Z,15.43
2022-08-18T06:07:34.701Z,14.07
2022-08-18T06:10:06.598Z,13.30
2022-08-18T06:12:37.337Z,13.20
2022-08-18T06:15:31.380Z,15.43
2022-08-18T06:18:27.159Z,16.02
2022-08-18T06:21:58.667Z,16.48
2022-08-18T06:25:01.481Z,17.30
2022-08-18T06:27:51.768Z,17.45
2022-08-18T06:30:42.603Z,26.10
2022-08-18T06:33:09.595Z,25.80
2022-08-18T06:35:48.506Z,31.10
2022-08-18T06:38:45.325Z,32.00
2022-08-18T06:41:41.858Z,29.88
2022-08-18T06:44:31.371Z,38.72
2022-08-18T06:47:08.156Z,41.85
2022-08-18T06:49:39.862Z,42.90
2022-08-18T06:52:19.244Z,49.53
2022-08-18T06:54:51.261Z,50.15
2022-08-18T06:57:28.448Z,54.20
2022-08-18T06:59:59.995Z,61.35
2022-08-18T07:02:48.503Z,55.42
2022-08-18T07:05:19.731Z,53.78
2022-08-18T07:08:00.811Z,49.00
2022-08-18T07:10:34.753Z,42.63
2022-08-18T07:13:26.246Z,46.03
2022-08-18T07:16:15.822Z,47.20
2022-08-18T07:18:44.316Z,45.60
2022-08-18T07:21:32.184Z,50.75
2022-08-18T07:24:24.367Z,48.88
2022-08-18T07:27:20.942Z,41.42
2022-08-18T07:30:03.735Z,39.95
2022-08-18T07:32:39.422Z,40.08
2022-08-18T07:35:08.487Z,43.50
2022-08-18T07:38:00.592Z,47.45
2022-08-18T07:40:45.152Z,37.22
2022-08-18T07:43:27.414Z,37.90
2022-08-18T07:46:03.596Z,36.13
2022-08-18T07:48:38.529Z,37.65
2022-08-18T07:51:09.428Z,33.60
2022-08-18T07:54:02.531Z,36.90
2022-08-18T07:59:25.604Z,37.47
2022-08-18T08:02:23.833Z,42.28
2022-08-18T08:05:02.664Z,40.33
2022-08-18T08:07:46.211Z,39.45
2022-08-18T08:10:29.635Z,33.88
2022-08-18T08:13:09.213Z,38.58
2022-08-18T08:16:12.001Z,39.33
2022-08-18T08:19:03.153Z,41.95
2022-08-18T08:21:53.047Z,34.35
2022-08-18T08:24:39.517Z,38.13
2022-08-18T08:27:35.277Z,41.22
2022-08-18T08:30:18.511Z,42.25
2022-08-18T08:33:13.632Z,35.45
2022-08-18T08:35:55.299Z,37.50
2022-08-18T08:38:43.039Z,39.80
2022-08-18T08:41:22.471Z,40.40
2022-08-18T08:44:23.702Z,40.50
2022-08-18T08:46:56.510Z,33.72
2022-08-18T08:49:47.132Z,38.80
2022-08-18T08:53:00.485Z,39.15
2022-08-18T08:55:35.600Z,35.10
2022-08-18T08:58:15.192Z,36.75
2022-08-18T09:00:43.118Z,34.90
2022-08-18T09:03:48.330Z,35.85
2022-08-18T09:06:39.472Z,29.33
2022-08-18T09:09:31.322Z,40.38
2022-08-18T09:12:14.817Z,33.17
2022-08-18T09:15:02.662Z,33.42
2022-08-18T09:17:41.618Z,41.40
2022-08-18T09:20:26.739Z,30.88
2022-08-18T09:23:13.897Z,38.38
2022-08-18T09:25:43.581Z,36.30
2022-08-18T09:28:18.200Z,33.58
2022-08-18T09:34:07.208Z,35.75
2022-08-18T09:36:49.859Z,36.40
2022-08-18T09:39:53.157Z,35.72
2022-08-18T09:42:51.227Z,36.83
2022-08-18T09:45:33.577Z,41.70
2022-08-18T09:48:02.155Z,30.50
2022-08-18T09:50:29.001Z,32.50
2022-08-18T09:53:15.786Z,32.17
2022-08-18T09:55:57.958Z,33.03
2022-08-18T09:58:29.195Z,36.28
2022-08-18T10:01:33.125Z,34.05
2022-08-18T10:04:15.566Z,33.10
2022-08-18T10:09:51.558Z,36.08
2022-08-18T10:12:45.658Z,35.83
2022-08-18T10:18:03.399Z,36.30
2022-08-18T10:20:38.801Z,32.78
2022-08-18T10:23:08.859Z,35.00
2022-08-18T10:25:38.770Z,33.75
2022-08-18T10:28:10.097Z,31.48
2022-08-18T10:30:56.848Z,35.65
2022-08-18T10:33:51.840Z,25.48
2022-08-18T10:36:42.127Z,30.25
2022-08-18T10:39:20.414Z,29.10
2022-08-18T10:41:56.932Z,30.40
2022-08-18T10:44:29.755Z,31.88
2022-08-18T10:47:00.379Z,22.95
2022-08-18T10:49:31.998Z,28.75
2022-08-18T10:52:28.322Z,31.43
2022-08-18T10:55:06.273Z,26.85
2022-08-18T10:57:49.372Z,32.03
2022-08-18T11:00:20.591Z,27.50
2022-08-18T11:03:42.216Z,30.98
2022-08-18T11:06:06.622Z,27.88
2022-08-18T11:08:48.278Z,26.40
2022-08-18T11:11:37.435Z,22.20
2022-08-18T11:14:54.477Z,24.02
2022-08-18T11:17:46.432Z,28.08
2022-08-18T11:20:18.164Z,25.10
2022-08-18T11:22:56.509Z,24.63
2022-08-18T11:25:29.106Z,22.23
2022-08-18T11:27:57.564Z,18.80
2022-08-18T11:30:35.334Z,19.42
2022-08-18T11:33:04.134Z,17.92
2022-08-18T11:35:46.933Z,18.15
2022-08-18T11:38:22.287Z,15.57
2022-08-18T11:41:11.691Z,22.52
2022-08-18T11:43:43.141Z,20.65
2022-08-18T11:46:27.920Z,22.30
2022-08-18T11:48:57.300Z,20.95
2022-08-18T11:51:28.506Z,24.02
2022-08-18T11:54:21.927Z,19.98
2022-08-18T11:56:50.662Z,19.10
2022-08-18T11:59:54.021Z,20.27
2022-08-18T12:02:18.381Z,19.48
2022-08-18T12:04:52.896Z,17.50
2022-08-18T12:07:35.967Z,20.52
2022-08-18T12:13:00.673Z,18.55
2022-08-18T12:15:43.436Z,18.38
2022-08-18T12:21:05.793Z,15.88
2022-08-18T12:23:39.223Z,16.10
2022-08-18T12:29:05.153Z,13.40
2022-08-18T12:31:41.989Z,15.02
2022-08-18T12:34:15.639Z,16.10
2022-08-18T12:36:42.858Z,17.92
2022-08-18T12:39:10.631Z,16.25
2022-08-18T12:41:38.027Z,14.10
2022-08-18T12:44:09.929Z,13.25
2022-08-18T12:46:42.767Z,15.50
2022-08-18T12:49:22.205Z,12.82
2022-08-18T12:51:50.248Z,17.70
2022-08-18T12:54:20.191Z,14.05
2022-08-18T12:56:51.731Z,13.25
2022-08-18T12:59:19.021Z,18.70
2022-08-18T13:01:46.823Z,12.27
2022-08-18T13:04:15.595Z,13.63
2022-08-18T13:06:59.607Z,14.23
2022-08-18T13:09:48.057Z,13.07
2022-08-18T13:12:20.004Z,13.95
2022-08-18T13:14:47.971Z,11.57
2022-08-18T13:17:32.318Z,10.20
2022-08-18T13:20:05.622Z,14.23
2022-08-18T13:22:33.376Z,12.15
2022-08-18T13:25:06.819Z,14.82
2022-08-18T13:27:37.417Z,12.27
2022-08-18T13:30:30.054Z,9.85
2022-08-18T13:33:02.426Z,14.07
2022-08-18T13:35:35.130Z,11.95
2022-08-18T13:38:12.404Z,14.60
2022-08-18T13:40:47.043Z,14.35
2022-08-18T13:43:15.632Z,16.60
2022-08-18T13:45:52.655Z,17.20
2022-08-18T13:48:20.323Z,17.98
2022-08-18T13:50:47.476Z,19.35
2022-08-18T13:55:49.239Z,17.30
2022-08-18T13:58:17.492Z,19.25
2022-08-18T14:00:52.392Z,17.63
2022-08-18T14:03:42.922Z,20.02
2022-08-18T14:06:13.010Z,21.15
2022-08-18T14:08:41.243Z,19.85
2022-08-18T14:11:09.627Z,17.80
2022-08-18T14:13:38.319Z,15.60
2022-08-18T14:16:18.861Z,18.27
2022-08-18T14:19:09.751Z,19.98
2022-08-18T14:22:01.231Z,16.00
2022-08-18T14:24:48.909Z,17.98
2022-08-18T14:27:17.526Z,18.45
2022-08-18T14:29:48.188Z,15.77
2022-08-18T14:32:28.566Z,14.73
2022-08-18T14:36:04.649Z,15.93
2022-08-18T14:37:48.974Z,16.95
2022-08-18T14:40:17.352Z,18.58
2022-08-18T14:42:54.825Z,17.83
2022-08-18T14:45:34.292Z,14.85
2022-08-18T14:48:07.255Z,13.93
2022-08-18T14:50:36.069Z,13.30
2022-08-18T14:53:04.978Z,13.15
2022-08-18T14:55:32.285Z,12.88
2022-08-18T14:57:59.553Z,12.60
2022-08-18T15:00:28.043Z,10.65
2022-08-18T15:02:55.384Z,10.95
2022-08-18T15:05:24.393Z,12.38
2022-08-18T15:07:52.918Z,15.93
2022-08-18T15:10:23.690Z,12.57
2022-08-18T15:12:55.467Z,11.70
2022-08-18T15:15:22.901Z,13.43
2022-08-18T15:17:52.914Z,13.10
2022-08-18T15:20:23.880Z,15.57
2022-08-18T15:23:17.984Z,10.32
2022-08-18T15:25:51.074Z,11.55
2022-08-18T15:28:19.918Z,9.00
2022-08-18T15:30:51.178Z,14.73
2022-08-18T15:33:23.551Z,8.85
2022-08-18T15:35:52.039Z,9.13
2022-08-18T15:38:21.344Z,10.20
2022-08-18T15:40:57.293Z,9.77
2022-08-18T15:43:31.384Z,9.85
2022-08-18T15:46:00.409Z,11.73
2022-08-18T15:48:30.732Z,12.77
2022-08-18T15:50:57.724Z,9.57
2022-08-18T15:53:39.924Z,9.85
2022-08-18T15:56:16.764Z,11.63
2022-08-18T15:58:49.160Z,8.82
2022-08-18T16:01:30.433Z,10.85
2022-08-18T16:04:01.323Z,9.30
2022-08-18T16:06:32.089Z,11.90
2022-08-18T16:09:00.748Z,13.93
2022-08-18T16:11:29.643Z,11.82
2022-08-18T16:13:58.975Z,10.65
2022-08-18T16:16:35.688Z,15.50
2022-08-18T16:19:05.640Z,11.27
2022-08-18T16:21:33.059Z,13.02
2022-08-18T16:24:00.159Z,10.48
2022-08-18T16:26:27.119Z,10.63
2022-08-18T16:28:54.237Z,11.82
2022-08-18T16:31:26.550Z,14.75
2022-08-18T16:33:55.085Z,10.63
2022-08-18T16:36:26.672Z,13.23
2022-08-18T16:38:56.178Z,13.25
2022-08-18T16:41:26.727Z,11.10
2022-08-18T16:43:56.244Z,13.70
2022-08-18T16:46:26.489Z,13.38
2022-08-18T16:48:56.405Z,13.10
2022-08-18T16:51:25.903Z,22.27
2022-08-18T16:53:54.481Z,13.52
2022-08-18T16:56:27.232Z,13.77
2022-08-18T16:59:13.218Z,12.95
2022-08-18T17:02:01.050Z,17.60
2022-08-18T17:04:33.492Z,11.10
2022-08-18T17:07:05.034Z,11.63
2022-08-18T17:09:33.457Z,15.43
2022-08-18T17:12:01.358Z,11.63
2022-08-18T17:14:30.006Z,13.85
2022-08-18T17:16:58.531Z,15.95
2022-08-18T17:19:27.962Z,16.40
2022-08-18T17:21:54.977Z,13.57
2022-08-18T17:24:31.314Z,13.32
2022-08-18T17:27:26.292Z,13.25
2022-08-18T17:30:07.092Z,11.30
2022-08-18T17:32:43.149Z,12.40
2022-08-18T17:35:20.258Z,12.02
2022-08-18T17:38:12.807Z,12.75
2022-08-18T17:40:45.598Z,11.48
2022-08-18T17:43:17.232Z,10.98
2022-08-18T17:45:46.958Z,12.93
2022-08-18T17:48:17.882Z,10.50
2022-08-18T17:51:10.126Z,12.27
2022-08-18T17:53:37.441Z,10.82
2022-08-18T17:56:14.896Z,10.93
2022-08-18T17:58:48.749Z,10.52
2022-08-18T18:01:17.546Z,10.90
2022-08-18T18:03:46.940Z,13.18
2022-08-18T18:06:35.188Z,11.13
2022-08-18T18:09:13.444Z,12.75
2022-08-18T18:11:47.047Z,9.18
2022-08-18T18:14:39.499Z,8.93
2022-08-18T18:17:30.828Z,13.02
2022-08-18T18:20:23.375Z,10.40
2022-08-18T18:22:52.214Z,12.00
2022-08-18T18:25:34.603Z,7.97
2022-08-18T18:28:02.047Z,7.30
2022-08-18T18:30:32.855Z,8.77
2022-08-18T18:33:05.549Z,8.18
2022-08-18T18:38:28.418Z,10.23
2022-08-18T18:41:12.479Z,8.93
2022-08-18T18:43:46.866Z,7.15
2022-08-18T18:46:18.826Z,7.55
2022-08-18T18:49:05.934Z,9.00
2022-08-18T18:51:52.398Z,7.68
2022-08-18T18:54:49.961Z,11.65
2022-08-18T18:57:32.015Z,9.57
2022-08-18T19:00:18.235Z,8.75
2022-08-18T19:02:58.314Z,10.52
2022-08-18T19:05:42.742Z,8.20
2022-08-18T19:08:12.652Z,8.98
2022-08-18T19:10:54.077Z,8.05
2022-08-18T19:13:39.293Z,9.77
2022-08-18T19:16:24.296Z,8.75
2022-08-18T19:19:37.896Z,10.50
2022-08-18T19:22:07.244Z,9.80
2022-08-18T19:24:53.783Z,14.10
2022-08-18T19:27:28.222Z,10.73
2022-08-18T19:30:01.786Z,13.90
2022-08-18T19:32:39.902Z,8.93
2022-08-18T19:35:12.053Z,8.57
2022-08-18T19:40:21.243Z,8.85
2022-08-18T19:42:58.728Z,8.88
2022-08-18T19:45:40.807Z,9.27
2022-08-18T19:48:23.848Z,12.43
2022-08-18T19:51:18.127Z,10.27
2022-08-18T19:54:09.462Z,8.40
2022-08-18T19:56:36.437Z,9.70
2022-08-18T19:59:34.029Z,12.48
2022-08-18T20:02:16.046Z,10.68
2022-08-18T20:04:59.215Z,11.68
2022-08-18T20:07:48.990Z,11.18
2022-08-18T20:10:41.236Z,8.20
2022-08-18T20:13:27.648Z,7.57
2022-08-18T20:16:43.894Z,8.77
2022-08-18T20:19:49.869Z,8.95
2022-08-18T20:22:24.492Z,11.95
2022-08-18T20:24:54.054Z,8.85
2022-08-18T20:27:30.244Z,10.45
2022-08-18T20:30:23.511Z,9.45
2022-08-18T20:33:09.984Z,9.25
2022-08-18T20:36:21.766Z,9.73
2022-08-18T20:38:54.468Z,8.88
2022-08-18T20:44:13.230Z,6.85
2022-08-18T20:47:04.323Z,7.68
2022-08-18T20:50:13.292Z,8.02
2022-08-18T20:52:49.235Z,8.85
2022-08-18T20:55:36.297Z,8.15
2022-08-18T20:58:17.391Z,6.88
2022-08-18T21:00:49.422Z,9.25
2022-08-18T21:03:20.558Z,10.27
2022-08-18T21:05:50.370Z,9.32
2022-08-18T21:08:28.815Z,7.40
2022-08-18T21:11:10.103Z,6.55
2022-08-18T21:13:51.464Z,11.48
2022-08-18T21:16:38.201Z,9.40
2022-08-18T21:19:32.312Z,5.97
2022-08-18T21:22:02.154Z,7.25
2022-08-18T21:24:43.929Z,8.20
2022-08-18T21:27:16.040Z,6.43
2022-08-18T21:29:49.338Z,6.25
2022-08-18T21:32:31.625Z,7.90
2022-08-18T21:35:05.666Z,6.20
2022-08-18T21:37:40.552Z,5.65
2022-08-18T21:40:08.281Z,7.78
2022-08-18T21:42:44.090Z,6.07
2022-08-18T21:45:23.234Z,9.13
2022-08-18T21:47:56.732Z,5.53
2022-08-18T21:50:27.345Z,6.82
2022-08-18T21:52:54.590Z,7.22
2022-08-18T21:55:32.737Z,7.00
2022-08-18T21:58:19.745Z,5.53
2022-08-18T22:01:18.988Z,7.43
2022-08-18T22:04:18.202Z,10.13
2022-08-18T22:06:52.911Z,7.60
2022-08-18T22:09:47.575Z,13.13
2022-08-18T22:12:50.466Z,10.10
2022-08-18T22:15:27.803Z,7.97
2022-08-18T22:18:05.475Z,5.10
2022-08-18T22:20:44.504Z,5.75
2022-08-18T22:23:33.042Z,6.72
2022-08-18T22:26:17.164Z,8.27
2022-08-18T22:28:53.073Z,7.60
2022-08-18T22:31:21.384Z,10.45
2022-08-18T22:33:49.755Z,7.82
2022-08-18T22:36:21.797Z,6.50
2022-08-18T22:38:49.626Z,8.37
2022-08-18T22:41:17.447Z,8.77
2022-08-18T22:43:45.272Z,6.30
2022-08-18T22:46:24.104Z,9.05
2022-08-18T22:48:52.706Z,6.72
2022-08-18T22:51:24.311Z,6.82
2022-08-18T22:53:51.474Z,6.45
2022-08-18T22:56:21.885Z,7.80
2022-08-18T22:59:05.876Z,7.25
2022-08-18T23:01:44.241Z,7.65
2022-08-18T23:04:11.227Z,9.13
2022-08-18T23:06:38.237Z,10.50
2022-08-18T23:09:05.987Z,7.80
2022-08-18T23:11:33.698Z,9.25
2022-08-18T23:14:02.146Z,7.55
2022-08-18T23:16:31.618Z,6.57
2022-08-18T23:19:02.096Z,7.10
2022-08-18T23:21:34.410Z,6.13
2022-08-18T23:24:04.439Z,8.43
2022-08-18T23:26:31.427Z,6.93
2022-08-18T23:28:58.537Z,7.78
2022-08-18T23:31:25.628Z,9.05
2022-08-18T23:33:52.531Z,6.75
2022-08-18T23:36:19.547Z,10.25
2022-08-18T23:38:46.501Z,8.57
2022-08-18T23:41:16.396Z,10.23
2022-08-18T23:43:43.293Z,6.85
2022-08-18T23:46:18.931Z,9.02
2022-08-18T23:48:49.725Z,7.03
2022-08-18T23:51:44.650Z,8.27
2022-08-18T23:54:24.456Z,6.45
2022-08-18T23:56:51.496Z,6.05
2022-08-18T23:59:20.684Z,9.48
